createdAt,value
2023-04-12T00:02:33.442Z,27
2023-04-12T00:07:41.586Z,27
2023-04-12T00:12:50.082Z,27
2023-04-12T00:17:59.986Z,27
2023-04-12T00:23:09.606Z,27
2023-04-12T00:28:19.355Z,27
2023-04-12T00:33:29.120Z,27
2023-04-12T00:38:38.242Z,27
2023-04-12T00:43:46.707Z,27
2023-04-12T00:48:55.831Z,27
2023-04-12T00:54:04.331Z,27
2023-04-12T00:59:14.071Z,27
2023-04-12T01:04:22.544Z,27
2023-04-12T01:09:32.314Z,27
2023-04-12T01:14:40.787Z,27
2023-04-12T01:19:50.578Z,27
2023-04-12T01:25:00.323Z,27
2023-04-12T01:30:08.820Z,27
2023-04-12T01:35:17.991Z,27
2023-04-12T01:40:27.687Z,27
2023-04-12T01:45:38.352Z,27
2023-04-12T01:50:46.551Z,27
2023-04-12T01:55:55.685Z,28
2023-04-12T02:01:05.575Z,28
2023-04-12T02:06:15.215Z,27
2023-04-12T02:11:25.618Z,27
2023-04-12T02:16:34.914Z,27
2023-04-12T02:21:45.124Z,27
2023-04-12T02:26:54.891Z,27
2023-04-12T02:32:04.645Z,27
2023-04-12T02:37:14.400Z,27
2023-04-12T02:42:24.233Z,28
2023-04-12T02:47:34.002Z,28
2023-04-12T02:52:43.037Z,28
2023-04-12T02:57:52.159Z,28
2023-04-12T03:03:03.184Z,28
2023-04-12T03:08:10.425Z,28
2023-04-12T03:49:22.812Z,29
2023-04-12T03:54:32.580Z,29
2023-04-12T03:59:40.936Z,29
2023-04-12T04:04:49.478Z,29
2023-04-12T04:09:58.560Z,29
2023-04-12T04:15:07.672Z,28
2023-04-12T04:20:16.793Z,29
2023-04-12T04:25:26.566Z,28
2023-04-12T04:30:35.660Z,28
2023-04-12T04:35:45.610Z,29
2023-04-12T04:40:53.918Z,29
2023-04-12T04:46:03.191Z,29
2023-04-12T04:51:12.170Z,29
2023-04-12T04:56:21.914Z,29
2023-04-12T05:01:31.786Z,29
2023-04-12T05:06:41.415Z,29
2023-04-12T05:11:51.837Z,29
2023-04-12T05:17:00.799Z,29
2023-04-12T05:22:09.441Z,29
2023-04-12T05:27:17.918Z,29
2023-04-12T05:32:28.445Z,29
2023-04-12T05:37:36.767Z,29
2023-04-12T05:42:46.558Z,29
2023-04-12T05:47:56.066Z,29
2023-04-12T05:53:05.441Z,29
2023-04-12T05:58:13.913Z,29
2023-04-12T06:03:24.356Z,29
2023-04-12T06:08:36.746Z,28
2023-04-12T06:13:43.204Z,28
2023-04-12T06:18:52.310Z,28
2023-04-12T06:24:01.433Z,28
2023-04-12T06:29:10.566Z,28
2023-04-12T06:34:20.969Z,28
2023-04-12T06:39:29.449Z,28
2023-04-12T06:44:39.427Z,28
2023-04-12T07:30:59.449Z,29
2023-04-12T07:36:10.233Z,29
2023-04-12T07:41:18.878Z,29
2023-04-12T07:46:29.514Z,28
2023-04-12T07:51:38.401Z,28
2023-04-12T07:56:48.171Z,28
2023-04-12T08:01:58.008Z,28
2023-04-12T08:07:08.329Z,28
2023-04-12T08:12:17.440Z,29
2023-04-12T08:17:27.266Z,29
2023-04-12T08:22:36.952Z,28
2023-04-12T08:27:46.739Z,28
2023-04-12T08:32:56.534Z,28
2023-04-12T08:38:07.069Z,28
2023-04-12T08:43:16.606Z,28
2023-04-12T08:48:25.782Z,28
2023-04-12T08:53:34.243Z,28
2023-04-12T08:58:43.992Z,28
2023-04-12T09:03:54.863Z,29
2023-04-12T09:09:02.957Z,29
2023-04-12T09:14:13.295Z,29
2023-04-12T09:19:23.037Z,29
2023-04-12T09:24:32.794Z,29
2023-04-12T09:29:42.572Z,28
2023-04-12T09:34:51.746Z,29
2023-04-12T09:40:01.438Z,29
2023-04-12T09:45:11.850Z,28
2023-04-12T09:50:21.605Z,29
2023-04-12T09:55:31.444Z,28
2023-04-12T10:00:41.125Z,29
2023-04-12T10:05:51.623Z,29
2023-04-12T10:11:00.672Z,29
2023-04-12T10:16:09.193Z,29
2023-04-12T10:21:18.251Z,29
2023-04-12T10:26:26.711Z,28
2023-04-12T10:31:36.699Z,28
2023-04-12T10:36:45.022Z,28
2023-04-12T10:41:53.474Z,29
2023-04-12T11:28:31.917Z,29
2023-04-12T11:33:22.067Z,29
2023-04-12T11:38:30.586Z,29
2023-04-12T11:43:40.364Z,29
2023-04-12T11:48:49.471Z,29
2023-04-12T11:53:59.550Z,29
2023-04-12T11:59:07.688Z,29
2023-04-12T12:04:16.884Z,29
2023-04-12T12:09:24.670Z,29
2023-04-12T12:14:33.147Z,29
2023-04-12T12:31:38.113Z,28
2023-04-12T12:36:47.641Z,29
2023-04-12T12:41:56.675Z,29
2023-04-12T12:47:15.114Z,31
2023-04-12T12:52:18.193Z,31
2023-04-12T12:57:25.275Z,32
2023-04-12T13:02:34.548Z,31
2023-04-12T13:07:42.237Z,31
2023-04-12T13:12:51.401Z,31
2023-04-12T13:18:01.230Z,30
2023-04-12T13:23:10.216Z,30
2023-04-12T13:28:19.381Z,30
2023-04-12T13:33:29.134Z,30
2023-04-12T13:38:37.593Z,30
2023-04-12T13:43:46.722Z,30
2023-04-12T13:48:55.972Z,30
2023-04-12T13:54:04.953Z,30
2023-04-12T13:59:14.080Z,30
2023-04-12T14:04:22.651Z,30
2023-04-12T14:09:32.373Z,29
2023-04-12T14:14:41.466Z,30
2023-04-12T14:19:50.556Z,30
2023-04-12T14:25:00.361Z,30
2023-04-12T14:30:10.104Z,30
2023-04-12T14:35:18.598Z,30
2023-04-12T14:40:28.320Z,29
2023-04-12T14:45:36.816Z,30
2023-04-12T14:50:46.587Z,31
2023-04-12T14:55:56.303Z,32
2023-04-12T15:01:05.443Z,33
2023-04-12T15:06:14.544Z,34
2023-04-12T15:11:25.266Z,34
2023-04-12T15:16:35.566Z,34
2023-04-12T15:21:45.101Z,34
2023-04-12T15:26:53.398Z,34
2023-04-12T15:32:02.953Z,33
2023-04-12T16:18:22.972Z,34
2023-04-12T16:23:31.372Z,34
2023-04-12T16:28:40.472Z,34
2023-04-12T16:34:12.123Z,34
2023-04-12T16:39:21.781Z,33
2023-04-12T16:44:32.160Z,33
2023-04-12T16:49:41.910Z,34
2023-04-12T16:54:51.048Z,33
2023-04-12T17:00:00.188Z,33
2023-04-12T17:05:09.302Z,33
2023-04-12T17:10:18.441Z,33
2023-04-12T17:15:26.960Z,33
2023-04-12T17:20:37.671Z,34
2023-04-12T17:25:49.044Z,34
2023-04-12T17:30:58.051Z,35
2023-04-12T17:36:12.081Z,34
2023-04-12T17:41:16.957Z,34
2023-04-12T17:46:27.559Z,33
2023-04-12T17:51:37.759Z,33
2023-04-12T17:56:46.885Z,32
2023-04-12T18:01:55.911Z,32
2023-04-12T18:07:05.755Z,31
2023-04-12T18:12:15.512Z,31
2023-04-12T18:17:27.126Z,30
2023-04-12T18:22:34.411Z,30
2023-04-12T18:27:44.799Z,29
2023-04-12T18:32:54.766Z,29
2023-04-12T18:38:03.017Z,29
2023-04-12T18:43:13.689Z,29
2023-04-12T18:48:25.145Z,28
2023-04-12T18:53:35.495Z,28
2023-04-12T18:58:56.473Z,29
2023-04-12T19:03:54.110Z,29
2023-04-12T19:09:02.879Z,29
2023-04-12T19:14:12.637Z,29
2023-04-12T19:19:21.125Z,29
2023-04-12T19:24:31.685Z,30
2023-04-12T19:29:40.627Z,30
2023-04-12T19:34:49.774Z,30
2023-04-12T19:40:00.271Z,30
2023-04-12T19:45:09.296Z,30
2023-04-12T20:41:58.669Z,30
2023-04-12T20:47:08.999Z,30
2023-04-12T20:52:18.856Z,30
2023-04-12T20:57:31.048Z,30
2023-04-12T21:02:40.731Z,30
2023-04-12T21:07:49.908Z,29
2023-04-12T21:12:59.665Z,29
